createdAt,value
2019-01-18T00:01:37.124Z,-10.20
2019-01-18T00:04:03.992Z,-10.20
2019-01-18T00:06:30.713Z,-10.20
2019-01-18T00:11:32.592Z,-10.20
2019-01-18T00:13:59.538Z,-10.30
2019-01-18T00:16:26.287Z,-10.30
2019-01-18T00:18:53.097Z,-10.30
2019-01-18T00:21:20.459Z,-10.30
2019-01-18T00:23:47.230Z,-10.40
2019-01-18T00:26:14.117Z,-10.40
2019-01-18T00:28:40.942Z,-10.40
2019-01-18T00:31:07.929Z,-10.40
2019-01-18T00:33:34.649Z,-10.50
2019-01-18T00:36:02.642Z,-10.80
2019-01-18T00:38:29.768Z,-10.80
2019-01-18T00:40:57.352Z,-10.80
2019-01-18T00:43:24.054Z,-10.90
2019-01-18T00:45:50.825Z,-10.80
2019-01-18T00:48:17.520Z,-10.80
2019-01-18T00:50:44.190Z,-10.80
2019-01-18T00:53:11.004Z,-10.80
2019-01-18T00:55:37.685Z,-10.80
2019-01-18T00:58:04.384Z,-10.90
2019-01-18T01:00:31.144Z,-10.90
2019-01-18T01:02:58.592Z,-11.00
2019-01-18T01:05:26.106Z,-10.90
2019-01-18T01:07:52.946Z,-10.90
2019-01-18T01:10:19.667Z,-11.00
2019-01-18T01:12:46.454Z,-11.00
2019-01-18T01:15:14.055Z,-10.70
2019-01-18T01:17:40.788Z,-10.80
2019-01-18T01:20:08.264Z,-10.60
2019-01-18T01:22:35.104Z,-10.60
2019-01-18T01:25:01.825Z,-10.50
2019-01-18T01:27:28.531Z,-10.40
2019-01-18T01:29:55.289Z,-10.50
2019-01-18T01:32:22.753Z,-10.80
2019-01-18T01:34:50.188Z,-10.80
2019-01-18T01:37:16.917Z,-10.80
2019-01-18T01:39:43.606Z,-10.90
2019-01-18T01:42:10.450Z,-10.90
2019-01-18T01:44:37.866Z,-10.70
2019-01-18T01:47:04.571Z,-10.80
2019-01-18T01:49:31.259Z,-10.70
2019-01-18T01:51:57.908Z,-10.70
2019-01-18T01:54:25.410Z,-10.60
2019-01-18T01:56:52.103Z,-10.70
2019-01-18T01:59:19.543Z,-10.50
2019-01-18T02:01:46.262Z,-10.50
2019-01-18T02:04:12.974Z,-10.40
2019-01-18T02:06:39.655Z,-10.40
2019-01-18T02:09:06.524Z,-10.40
2019-01-18T02:11:33.989Z,-10.40
2019-01-18T02:14:00.667Z,-10.50
2019-01-18T02:16:27.349Z,-10.50
2019-01-18T02:18:54.804Z,-10.50
2019-01-18T02:21:21.570Z,-10.50
2019-01-18T02:23:49.020Z,-10.50
2019-01-18T02:26:16.517Z,-10.50
2019-01-18T02:28:44.049Z,-10.40
2019-01-18T02:31:10.788Z,-10.40
2019-01-18T02:33:37.505Z,-10.40
2019-01-18T02:36:04.296Z,-10.40
2019-01-18T02:38:30.996Z,-10.50
2019-01-18T02:40:58.416Z,-10.60
2019-01-18T02:43:25.226Z,-10.60
2019-01-18T02:45:51.962Z,-10.50
2019-01-18T02:48:18.648Z,-10.50
2019-01-18T02:50:45.383Z,-10.40
2019-01-18T02:53:12.107Z,-10.40
2019-01-18T02:55:38.863Z,-10.30
2019-01-18T02:58:05.548Z,-10.30
2019-01-18T03:00:32.250Z,-10.30
2019-01-18T03:02:59.016Z,-10.30
2019-01-18T03:05:25.815Z,-10.30
2019-01-18T03:07:52.623Z,-10.30
2019-01-18T03:10:20.229Z,-10.20
2019-01-18T03:12:47.009Z,-10.20
2019-01-18T03:15:14.493Z,-10.20
2019-01-18T03:17:41.247Z,-10.20
2019-01-18T03:20:08.065Z,-10.30
2019-01-18T03:22:34.754Z,-10.20
2019-01-18T03:25:01.447Z,-10.20
2019-01-18T03:27:28.197Z,-10.20
2019-01-18T03:29:54.869Z,-10.20
2019-01-18T03:32:22.321Z,-10.10
2019-01-18T03:34:49.072Z,-10.20
2019-01-18T03:37:15.767Z,-10.00
2019-01-18T03:39:42.449Z,-10.00
2019-01-18T03:42:09.287Z,-10.00
2019-01-18T03:44:36.040Z,-10.00
2019-01-18T03:47:03.561Z,-10.10
2019-01-18T03:49:30.297Z,-10.10
2019-01-18T03:51:56.984Z,-10.00
2019-01-18T03:54:24.501Z,-10.10
2019-01-18T03:56:51.207Z,-10.10
2019-01-18T03:59:18.623Z,-9.90
2019-01-18T04:01:45.415Z,-10.00
2019-01-18T04:04:12.086Z,-10.10
2019-01-18T04:06:38.826Z,-9.90
2019-01-18T04:09:05.655Z,-10.00
2019-01-18T04:11:32.337Z,-10.10
2019-01-18T04:13:59.824Z,-10.20
2019-01-18T04:16:26.581Z,-10.20
2019-01-18T04:18:53.233Z,-10.20
2019-01-18T04:21:19.958Z,-10.30
2019-01-18T04:23:50.662Z,-10.30
2019-01-18T04:26:18.157Z,-10.20
2019-01-18T04:28:44.857Z,-10.20
2019-01-18T04:31:12.348Z,-10.20
2019-01-18T04:33:39.048Z,-10.20
2019-01-18T04:36:05.710Z,-10.10
2019-01-18T04:38:32.491Z,-10.20
2019-01-18T04:40:59.163Z,-10.20
2019-01-18T04:43:25.815Z,-10.20
2019-01-18T04:45:52.611Z,-10.10
2019-01-18T04:48:19.303Z,-10.10
2019-01-18T04:50:46.038Z,-10.10
2019-01-18T04:53:12.798Z,-10.10
2019-01-18T04:55:39.501Z,-10.10
2019-01-18T04:58:06.982Z,-10.10
2019-01-18T05:00:40.215Z,-10.10
2019-01-18T05:03:00.519Z,-10.10
2019-01-18T05:05:27.221Z,-10.10
2019-01-18T05:07:53.994Z,-10.00
2019-01-18T05:10:20.760Z,-10.10
2019-01-18T05:12:48.228Z,-10.00
2019-01-18T05:15:16.619Z,-10.00
2019-01-18T05:17:43.359Z,-10.10
2019-01-18T05:20:10.158Z,-10.00
2019-01-18T05:22:36.895Z,-9.90
2019-01-18T05:25:04.228Z,-9.90
2019-01-18T05:27:30.582Z,-9.90
2019-01-18T05:29:57.274Z,-9.90
2019-01-18T05:32:24.034Z,-9.90
2019-01-18T05:34:50.777Z,-9.90
2019-01-18T05:37:17.508Z,-9.90
2019-01-18T05:39:44.286Z,-9.90
2019-01-18T05:42:25.867Z,-9.90
2019-01-18T05:44:52.639Z,-9.90
2019-01-18T05:47:19.502Z,-9.90
2019-01-18T05:49:46.218Z,-9.90
2019-01-18T05:52:12.924Z,-9.90
2019-01-18T05:54:39.636Z,-9.90
2019-01-18T05:57:06.467Z,-10.00
2019-01-18T05:59:33.229Z,-10.00
2019-01-18T06:02:00.000Z,-10.00
2019-01-18T06:04:26.927Z,-9.90
2019-01-18T06:06:53.760Z,-9.90
2019-01-18T06:09:20.484Z,-9.90
2019-01-18T06:11:47.318Z,-9.80
2019-01-18T06:14:14.109Z,-9.80
2019-01-18T06:16:41.603Z,-9.80
2019-01-18T06:19:09.080Z,-9.80
2019-01-18T06:21:36.199Z,-9.80
2019-01-18T06:24:04.920Z,-9.80
2019-01-18T06:26:31.812Z,-9.80
2019-01-18T06:28:58.596Z,-9.70
2019-01-18T06:31:25.318Z,-9.70
2019-01-18T06:33:52.830Z,-9.70
2019-01-18T06:36:19.651Z,-9.80
2019-01-18T06:38:47.186Z,-9.80
2019-01-18T06:41:14.756Z,-9.80
2019-01-18T06:43:41.699Z,-9.80
2019-01-18T06:46:08.571Z,-9.80
2019-01-18T06:48:35.402Z,-9.80
2019-01-18T06:51:03.096Z,-9.70
2019-01-18T06:53:30.122Z,-9.70
2019-01-18T06:55:56.994Z,-9.80
2019-01-18T06:58:23.740Z,-9.80
2019-01-18T07:00:50.453Z,-9.80
2019-01-18T07:03:17.244Z,-9.70
2019-01-18T07:05:44.702Z,-9.80
2019-01-18T07:08:12.195Z,-9.90
2019-01-18T07:10:39.014Z,-9.90
2019-01-18T07:13:13.626Z,-9.80
2019-01-18T07:15:41.151Z,-9.80
2019-01-18T07:18:07.917Z,-9.80
2019-01-18T07:20:35.408Z,-9.80
2019-01-18T07:23:02.208Z,-9.80
2019-01-18T07:25:28.951Z,-9.80
2019-01-18T07:28:00.065Z,-9.70
2019-01-18T07:30:27.699Z,-9.70
2019-01-18T07:32:54.425Z,-9.70
2019-01-18T07:35:21.232Z,-9.80
2019-01-18T07:37:48.045Z,-9.70
2019-01-18T07:40:14.832Z,-9.80
2019-01-18T07:42:42.312Z,-9.70
2019-01-18T07:45:11.582Z,-9.70
2019-01-18T07:47:38.404Z,-9.70
2019-01-18T07:50:05.983Z,-9.60
2019-01-18T07:52:34.492Z,-9.50
2019-01-18T07:55:01.264Z,-9.50
2019-01-18T07:57:28.020Z,-9.50
2019-01-18T07:59:54.809Z,-9.60
2019-01-18T08:02:22.298Z,-9.50
2019-01-18T08:04:49.084Z,-9.50
2019-01-18T08:07:15.894Z,-9.60
2019-01-18T08:09:42.608Z,-9.50
2019-01-18T08:12:09.436Z,-9.40
2019-01-18T08:14:36.252Z,-9.40
2019-01-18T08:17:03.063Z,-9.40
2019-01-18T08:19:29.840Z,-9.30
2019-01-18T08:21:57.332Z,-9.30
2019-01-18T08:24:24.078Z,-9.30
2019-01-18T08:26:50.877Z,-9.30
2019-01-18T08:29:24.447Z,-9.30
2019-01-18T08:31:51.319Z,-9.20
2019-01-18T08:34:18.171Z,-9.30
2019-01-18T08:39:19.444Z,-9.10
2019-01-18T08:41:46.896Z,-9.00
2019-01-18T08:44:13.654Z,-9.10
2019-01-18T08:46:40.434Z,-9.00
2019-01-18T08:49:07.255Z,-9.00
2019-01-18T08:51:34.011Z,-8.90
2019-01-18T08:54:00.870Z,-8.90
2019-01-18T08:56:27.670Z,-8.80
2019-01-18T08:58:54.431Z,-8.80
2019-01-18T09:01:21.296Z,-8.70
2019-01-18T09:03:48.077Z,-8.70
2019-01-18T09:06:15.576Z,-8.60
2019-01-18T09:08:42.418Z,-8.60
2019-01-18T09:11:09.172Z,-8.50
2019-01-18T09:13:35.953Z,-8.40
2019-01-18T09:16:03.483Z,-8.40
2019-01-18T09:18:30.225Z,-8.40
2019-01-18T09:20:56.986Z,-8.40
2019-01-18T09:23:24.749Z,-8.30
2019-01-18T09:25:52.264Z,-8.10
2019-01-18T09:28:19.139Z,-8.10
2019-01-18T09:30:45.886Z,-7.90
2019-01-18T09:33:12.609Z,-7.90
2019-01-18T09:35:39.621Z,-7.80
2019-01-18T09:38:06.375Z,-7.70
2019-01-18T09:40:33.185Z,-7.60
2019-01-18T09:43:00.747Z,-7.50
2019-01-18T09:45:27.530Z,-7.50
2019-01-18T09:47:55.102Z,-7.40
2019-01-18T09:50:21.972Z,-7.40
2019-01-18T09:52:48.904Z,-7.20
2019-01-18T09:55:16.427Z,-7.10
2019-01-18T09:57:43.229Z,-7.20
2019-01-18T10:00:13.826Z,-7.10
2019-01-18T10:02:40.654Z,-6.90
2019-01-18T10:07:40.307Z,-6.40
2019-01-18T10:10:11.026Z,-6.40
2019-01-18T10:12:37.810Z,-6.30
2019-01-18T10:15:06.302Z,-6.30
2019-01-18T10:17:34.211Z,-6.30
2019-01-18T10:20:00.974Z,-6.30
2019-01-18T10:22:27.790Z,-6.40
2019-01-18T10:24:54.595Z,-6.40
2019-01-18T10:27:23.939Z,-6.30
2019-01-18T10:29:48.165Z,-6.40
2019-01-18T10:32:15.682Z,-6.20
2019-01-18T10:34:43.174Z,-6.20
2019-01-18T10:37:10.681Z,-6.20
2019-01-18T10:39:38.428Z,-6.10
2019-01-18T10:42:05.185Z,-6.10
2019-01-18T10:44:31.993Z,-6.00
2019-01-18T10:46:58.829Z,-6.00
2019-01-18T10:49:26.359Z,-5.80
2019-01-18T10:51:53.095Z,-5.80
2019-01-18T10:54:19.938Z,-5.80
2019-01-18T10:56:47.428Z,-5.60
2019-01-18T10:59:14.924Z,-5.60
2019-01-18T11:01:41.780Z,-5.70
2019-01-18T11:04:08.514Z,-5.60
2019-01-18T11:06:35.231Z,-5.60
2019-01-18T11:09:02.197Z,-5.50
2019-01-18T11:11:36.029Z,-5.50
2019-01-18T11:14:02.887Z,-5.40
2019-01-18T11:16:30.345Z,-5.40
2019-01-18T11:18:57.125Z,-5.40
2019-01-18T11:21:23.905Z,-5.30
2019-01-18T11:23:50.672Z,-5.40
2019-01-18T11:26:18.180Z,-5.30
2019-01-18T11:28:45.066Z,-5.40
2019-01-18T11:31:12.615Z,-5.30
2019-01-18T11:33:40.173Z,-5.20
2019-01-18T11:36:08.750Z,-5.30
2019-01-18T11:38:35.538Z,-5.30
2019-01-18T11:41:02.369Z,-5.30
2019-01-18T11:43:29.923Z,-5.20
2019-01-18T11:45:57.481Z,-5.10
2019-01-18T11:48:25.049Z,-5.10
2019-01-18T11:50:51.989Z,-5.10
2019-01-18T11:53:19.435Z,-5.00
2019-01-18T11:55:46.289Z,-5.00
2019-01-18T11:58:13.081Z,-5.00
2019-01-18T12:00:39.853Z,-4.90
2019-01-18T12:03:06.679Z,-4.90
2019-01-18T12:05:33.454Z,-4.90
2019-01-18T12:08:00.264Z,-4.80
2019-01-18T12:10:27.217Z,-4.80
2019-01-18T12:12:54.811Z,-4.80
2019-01-18T12:15:37.275Z,-4.70
2019-01-18T12:18:07.535Z,-4.80
2019-01-18T12:20:35.065Z,-4.60
2019-01-18T12:23:03.343Z,-4.70
2019-01-18T12:25:30.951Z,-4.60
2019-01-18T12:27:57.861Z,-4.70
2019-01-18T12:30:25.475Z,-4.60
2019-01-18T12:32:53.062Z,-4.50
2019-01-18T12:35:19.829Z,-4.60
2019-01-18T12:37:47.355Z,-4.60
2019-01-18T12:40:14.123Z,-4.60
2019-01-18T12:42:40.890Z,-4.60
2019-01-18T12:45:08.608Z,-4.70
2019-01-18T12:47:36.141Z,-4.70
2019-01-18T12:50:02.960Z,-4.80
2019-01-18T12:52:30.956Z,-4.70
2019-01-18T12:54:58.002Z,-4.70
2019-01-18T12:57:25.560Z,-4.80
2019-01-18T12:59:52.346Z,-4.80
2019-01-18T13:02:19.115Z,-4.80
2019-01-18T13:04:45.862Z,-4.80
2019-01-18T13:07:12.621Z,-4.90
2019-01-18T13:09:39.371Z,-4.90
2019-01-18T13:12:06.171Z,-4.90
2019-01-18T13:14:33.682Z,-4.90
2019-01-18T13:17:00.453Z,-5.00
2019-01-18T13:19:28.017Z,-5.00
2019-01-18T13:21:55.543Z,-5.00
2019-01-18T13:24:22.343Z,-5.00
2019-01-18T13:26:49.161Z,-5.10
2019-01-18T13:29:16.790Z,-5.20
2019-01-18T13:31:43.518Z,-5.20
2019-01-18T13:34:10.407Z,-5.20
2019-01-18T13:36:37.858Z,-5.40
2019-01-18T13:39:05.382Z,-5.40
2019-01-18T13:41:32.209Z,-5.40
2019-01-18T13:43:58.991Z,-5.40
2019-01-18T13:46:25.868Z,-5.50
2019-01-18T13:48:52.647Z,-5.50
2019-01-18T13:51:19.443Z,-5.50
2019-01-18T13:53:46.992Z,-5.60
2019-01-18T13:56:14.561Z,-5.70
2019-01-18T13:58:42.348Z,-5.70
2019-01-18T14:01:09.160Z,-5.70
2019-01-18T14:03:35.896Z,-5.70
2019-01-18T14:06:02.689Z,-5.80
2019-01-18T14:08:30.233Z,-5.90
2019-01-18T14:10:57.008Z,-5.90
2019-01-18T14:13:23.832Z,-6.00
2019-01-18T14:15:50.704Z,-6.00
2019-01-18T14:18:17.819Z,-6.10
2019-01-18T14:20:44.575Z,-6.10
2019-01-18T14:23:11.355Z,-6.10
2019-01-18T14:25:38.114Z,-6.20
2019-01-18T14:28:05.649Z,-6.30
2019-01-18T14:30:35.781Z,-6.40
2019-01-18T14:32:59.954Z,-6.40
2019-01-18T14:35:26.661Z,-6.40
2019-01-18T14:37:53.498Z,-6.40
2019-01-18T14:40:20.220Z,-6.60
2019-01-18T14:42:47.572Z,-6.60
2019-01-18T14:45:19.202Z,-6.60
2019-01-18T14:47:46.708Z,-6.70
2019-01-18T14:50:13.519Z,-6.70
2019-01-18T14:52:40.315Z,-6.70
2019-01-18T14:55:07.099Z,-6.80
2019-01-18T14:57:34.996Z,-6.80
2019-01-18T15:00:02.590Z,-6.90
2019-01-18T15:02:29.294Z,-6.90
2019-01-18T15:04:56.006Z,-7.00
2019-01-18T15:07:23.475Z,-7.10
2019-01-18T15:09:50.163Z,-7.20
2019-01-18T15:12:16.861Z,-7.20
2019-01-18T15:14:43.895Z,-7.20
2019-01-18T15:17:10.616Z,-7.20
2019-01-18T15:19:38.114Z,-7.20
2019-01-18T15:22:04.895Z,-7.20
2019-01-18T15:24:32.372Z,-7.30
2019-01-18T15:26:59.183Z,-7.30
2019-01-18T15:29:25.940Z,-7.30
2019-01-18T15:31:52.712Z,-7.30
2019-01-18T15:34:19.558Z,-7.40
2019-01-18T15:36:46.309Z,-7.50
2019-01-18T15:39:13.109Z,-7.50
2019-01-18T15:41:40.707Z,-7.60
2019-01-18T15:44:07.445Z,-7.60
2019-01-18T15:46:34.246Z,-7.60
2019-01-18T15:49:01.787Z,-7.60
2019-01-18T15:51:28.516Z,-7.70
2019-01-18T15:54:10.191Z,-7.70
2019-01-18T15:56:36.997Z,-7.80
2019-01-18T15:59:03.769Z,-7.80
2019-01-18T16:01:30.656Z,-7.80
2019-01-18T16:03:57.427Z,-7.80
2019-01-18T16:06:24.217Z,-7.90
2019-01-18T16:08:51.028Z,-7.90
2019-01-18T16:11:17.768Z,-7.90
2019-01-18T16:13:44.512Z,-7.90
2019-01-18T16:16:11.429Z,-8.00
2019-01-18T16:18:38.208Z,-8.00
2019-01-18T16:21:04.986Z,-8.00
2019-01-18T16:23:32.563Z,-8.00
2019-01-18T16:26:00.042Z,-8.00
2019-01-18T16:28:26.782Z,-8.00
2019-01-18T16:30:53.574Z,-8.10
2019-01-18T16:33:35.244Z,-8.00
2019-01-18T16:36:03.177Z,-8.10
2019-01-18T16:38:29.995Z,-8.10
2019-01-18T16:40:56.752Z,-8.10
2019-01-18T16:43:25.272Z,-8.10
2019-01-18T16:45:52.122Z,-8.10
2019-01-18T16:48:18.913Z,-8.20
2019-01-18T16:50:46.514Z,-8.20
2019-01-18T16:53:13.378Z,-8.20
2019-01-18T16:55:43.941Z,-8.40
2019-01-18T16:58:11.517Z,-8.30
2019-01-18T17:00:44.548Z,-8.40
2019-01-18T17:03:11.728Z,-8.40
2019-01-18T17:05:40.764Z,-8.40
2019-01-18T17:08:07.678Z,-8.40
2019-01-18T17:10:34.714Z,-8.40
2019-01-18T17:13:01.930Z,-8.40
2019-01-18T17:15:28.900Z,-8.50
2019-01-18T17:17:56.151Z,-8.50
2019-01-18T17:20:32.596Z,-8.50
2019-01-18T17:23:00.195Z,-8.60
2019-01-18T17:25:26.926Z,-8.60
2019-01-18T17:27:54.921Z,-8.60
2019-01-18T17:30:23.913Z,-8.60
2019-01-18T17:32:51.426Z,-8.60
2019-01-18T17:35:26.518Z,-8.60
2019-01-18T17:37:53.325Z,-8.60
2019-01-18T17:40:24.901Z,-8.60
2019-01-18T17:42:52.456Z,-8.60
2019-01-18T17:45:27.228Z,-8.60
2019-01-18T17:50:58.301Z,-8.70
2019-01-18T17:53:40.947Z,-8.70
2019-01-18T17:56:10.293Z,-8.60
2019-01-18T17:58:50.144Z,-8.70
2019-01-18T18:04:34.687Z,-8.60
2019-01-18T18:13:24.991Z,-8.50
2019-01-18T18:15:59.511Z,-8.50
2019-01-18T18:18:32.582Z,-8.50
2019-01-18T18:21:33.233Z,-8.50
2019-01-18T18:24:19.275Z,-8.60
2019-01-18T18:27:08.175Z,-8.50
2019-01-18T18:30:05.856Z,-8.50
2019-01-18T18:35:49.656Z,-8.60
2019-01-18T18:38:19.071Z,-8.50
2019-01-18T18:40:54.763Z,-8.50
2019-01-18T18:43:34.566Z,-8.50
2019-01-18T18:46:17.579Z,-8.50
2019-01-18T18:48:52.396Z,-8.50
2019-01-18T18:54:40.648Z,-8.50
2019-01-18T18:57:07.363Z,-8.50
2019-01-18T19:02:53.981Z,-8.50
2019-01-18T19:05:44.544Z,-8.60
2019-01-18T19:11:16.201Z,-8.70
2019-01-18T19:13:44.872Z,-8.70
2019-01-18T19:16:33.499Z,-8.80
2019-01-18T19:22:16.659Z,-8.70
2019-01-18T19:28:13.282Z,-8.70
2019-01-18T19:31:01.279Z,-8.70
2019-01-18T19:33:44.224Z,-8.60
2019-01-18T19:36:17.800Z,-8.60
2019-01-18T19:42:02.813Z,-8.60
2019-01-18T19:44:42.322Z,-8.70
2019-01-18T19:47:09.146Z,-8.70
2019-01-18T19:49:44.083Z,-8.70
2019-01-18T19:52:14.827Z,-8.70
2019-01-18T19:57:57.822Z,-8.80
2019-01-18T20:00:43.105Z,-8.80
2019-01-18T20:03:13.638Z,-8.70
2019-01-18T20:05:55.510Z,-8.80
2019-01-18T20:08:33.980Z,-8.80
2019-01-18T20:11:04.289Z,-8.80
2019-01-18T20:13:45.162Z,-8.80
2019-01-18T20:16:29.510Z,-8.80
2019-01-18T20:22:09.243Z,-8.70
2019-01-18T20:27:52.962Z,-8.70
2019-01-18T20:30:29.843Z,-8.80
2019-01-18T20:33:15.341Z,-8.80
2019-01-18T20:36:01.185Z,-8.80
2019-01-18T20:38:40.974Z,-8.80
2019-01-18T20:44:29.693Z,-8.70
2019-01-18T20:47:07.406Z,-8.70
2019-01-18T20:52:48.183Z,-8.80
2019-01-18T20:55:28.970Z,-8.80
2019-01-18T20:58:05.669Z,-8.80
2019-01-18T21:03:35.892Z,-8.90
2019-01-18T21:06:10.610Z,-9.00
2019-01-18T21:08:44.180Z,-9.00
2019-01-18T21:11:25.855Z,-9.00
2019-01-18T21:17:17.850Z,-9.00
2019-01-18T21:19:46.512Z,-9.00
2019-01-18T21:22:31.434Z,-9.00
2019-01-18T21:25:10.440Z,-9.10
2019-01-18T21:27:50.127Z,-9.10
2019-01-18T21:30:17.843Z,-9.20
2019-01-18T21:33:01.386Z,-9.30
2019-01-18T21:35:30.976Z,-9.30
2019-01-18T21:38:12.670Z,-9.40
2019-01-18T21:40:42.643Z,-9.40
2019-01-18T21:43:16.979Z,-9.50
2019-01-18T21:48:59.586Z,-9.50
2019-01-18T21:51:47.469Z,-9.50
2019-01-18T21:54:28.498Z,-9.50
2019-01-18T21:57:07.363Z,-9.50
2019-01-18T21:59:37.091Z,-9.50
2019-01-18T22:02:25.629Z,-9.50
2019-01-18T22:04:57.046Z,-9.40
2019-01-18T22:07:39.070Z,-9.40
2019-01-18T22:10:19.960Z,-9.40
2019-01-18T22:16:26.861Z,-9.40
2019-01-18T22:19:00.478Z,-9.50
2019-01-18T22:21:45.187Z,-9.50
2019-01-18T22:24:12.865Z,-9.50
2019-01-18T22:26:45.496Z,-9.50
2019-01-18T22:32:10.494Z,-9.50
2019-01-18T22:37:35.244Z,-9.60
2019-01-18T22:40:11.571Z,-9.60
2019-01-18T22:42:48.287Z,-9.60
2019-01-18T22:45:15.855Z,-9.60
2019-01-18T22:48:04.979Z,-9.60
2019-01-18T22:50:45.714Z,-9.70
2019-01-18T22:53:36.540Z,-9.70
2019-01-18T23:16:11.473Z,-10.00
2019-01-18T23:18:43.505Z,-10.10
2019-01-18T23:24:11.221Z,-10.00
2019-01-18T23:26:59.791Z,-10.10
2019-01-18T23:29:39.316Z,-10.10
2019-01-18T23:32:18.015Z,-10.10
2019-01-18T23:34:45.880Z,-10.10
2019-01-18T23:37:15.112Z,-10.20
2019-01-18T23:39:41.959Z,-10.20
2019-01-18T23:42:14.658Z,-10.20
2019-01-18T23:44:51.464Z,-10.10
2019-01-18T23:47:22.024Z,-10.20
2019-01-18T23:49:56.531Z,-10.20
2019-01-18T23:52:35.250Z,-10.20
2019-01-18T23:58:21.768Z,-10.30
